sensor_id;sensor_type;location;lat;lon;timestamp;pressure;altitude;pressure_sealevel;temperature;humidity
36630;BME280;36256;42.154;23.002;2023-02-13T00:02:25;99000.81;;;-0.10;95.85
36630;BME280;36256;42.154;23.002;2023-02-13T00:04:53;99007.13;;;-0.09;96.72
36630;BME280;36256;42.154;23.002;2023-02-13T00:07:20;99005.75;;;-0.15;96.98
36630;BME280;36256;42.154;23.002;2023-02-13T00:09:47;99005.16;;;-0.21;97.03
36630;BME280;36256;42.154;23.002;2023-02-13T00:12:13;99002.38;;;-0.33;97.57
36630;BME280;36256;42.154;23.002;2023-02-13T00:14:40;99011.31;;;-0.36;97.01
36630;BME280;36256;42.154;23.002;2023-02-13T00:17:07;99005.31;;;-0.50;97.29
36630;BME280;36256;42.154;23.002;2023-02-13T00:19:33;99019.81;;;-0.41;97.54
36630;BME280;36256;42.154;23.002;2023-02-13T00:22:00;99017.72;;;-0.44;97.94
36630;BME280;36256;42.154;23.002;2023-02-13T00:24:26;99017.53;;;-0.39;97.28
36630;BME280;36256;42.154;23.002;2023-02-13T00:26:53;99016.84;;;-0.36;96.97
36630;BME280;36256;42.154;23.002;2023-02-13T00:29:20;99006.25;;;-0.34;95.51
36630;BME280;36256;42.154;23.002;2023-02-13T00:31:46;98994.53;;;-0.43;94.84
36630;BME280;36256;42.154;23.002;2023-02-13T00:34:13;99012.38;;;-0.40;95.72
36630;BME280;36256;42.154;23.002;2023-02-13T00:36:40;99010.06;;;-0.38;97.33
36630;BME280;36256;42.154;23.002;2023-02-13T00:39:10;99009.84;;;-0.33;96.75
36630;BME280;36256;42.154;23.002;2023-02-13T00:41:38;99004.31;;;-0.33;95.67
36630;BME280;36256;42.154;23.002;2023-02-13T00:44:04;99006.16;;;-0.37;95.46
36630;BME280;36256;42.154;23.002;2023-02-13T00:46:31;99005.31;;;-0.50;95.20
36630;BME280;36256;42.154;23.002;2023-02-13T00:48:57;99013.13;;;-0.52;95.35
36630;BME280;36256;42.154;23.002;2023-02-13T00:51:24;99016.69;;;-0.51;95.31
36630;BME280;36256;42.154;23.002;2023-02-13T00:53:50;99006.41;;;-0.63;95.58
36630;BME280;36256;42.154;23.002;2023-02-13T00:56:17;99002.25;;;-0.69;95.25
36630;BME280;36256;42.154;23.002;2023-02-13T00:58:44;99012.63;;;-0.66;94.04
36630;BME280;36256;42.154;23.002;2023-02-13T01:01:11;99018.78;;;-0.69;94.11
36630;BME280;36256;42.154;23.002;2023-02-13T01:03:37;99020.97;;;-0.74;95.76
36630;BME280;36256;42.154;23.002;2023-02-13T01:06:05;99016.34;;;-0.83;96.37
36630;BME280;36256;42.154;23.002;2023-02-13T01:08:32;99010.91;;;-0.91;96.92
36630;BME280;36256;42.154;23.002;2023-02-13T01:10:59;99024.22;;;-0.93;96.37
36630;BME280;36256;42.154;23.002;2023-02-13T01:13:26;99022.31;;;-1.01;95.29
36630;BME280;36256;42.154;23.002;2023-02-13T01:15:52;99026.53;;;-1.24;96.01
36630;BME280;36256;42.154;23.002;2023-02-13T01:18:19;99030.09;;;-1.44;97.81
36630;BME280;36256;42.154;23.002;2023-02-13T01:20:56;99028.38;;;-1.58;99.68
36630;BME280;36256;42.154;23.002;2023-02-13T01:23:23;99030.50;;;-1.54;100.00
36630;BME280;36256;42.154;23.002;2023-02-13T01:25:50;99033.00;;;-1.70;100.00
36630;BME280;36256;42.154;23.002;2023-02-13T01:28:17;99036.47;;;-1.82;100.00
36630;BME280;36256;42.154;23.002;2023-02-13T01:30:44;99034.38;;;-1.85;100.00
36630;BME280;36256;42.154;23.002;2023-02-13T01:33:11;99039.69;;;-1.80;100.00
36630;BME280;36256;42.154;23.002;2023-02-13T01:35:38;99029.91;;;-1.69;100.00
36630;BME280;36256;42.154;23.002;2023-02-13T01:38:06;99035.06;;;-1.58;100.00
36630;BME280;36256;42.154;23.002;2023-02-13T01:40:32;99034.84;;;-1.53;99.96
36630;BME280;36256;42.154;23.002;2023-02-13T01:42:59;99035.88;;;-1.37;99.96
36630;BME280;36256;42.154;23.002;2023-02-13T01:45:28;99041.41;;;-1.37;100.00
36630;BME280;36256;42.154;23.002;2023-02-13T01:48:06;99040.81;;;-1.51;100.00
36630;BME280;36256;42.154;23.002;2023-02-13T01:50:44;99041.56;;;-2.01;100.00
36630;BME280;36256;42.154;23.002;2023-02-13T01:53:18;99028.28;;;-1.99;100.00
36630;BME280;36256;42.154;23.002;2023-02-13T01:55:52;99037.13;;;-1.85;100.00
36630;BME280;36256;42.154;23.002;2023-02-13T01:58:24;99009.31;;;-1.92;100.00
36630;BME280;36256;42.154;23.002;2023-02-13T02:00:52;99030.53;;;-1.63;100.00
36630;BME280;36256;42.154;23.002;2023-02-13T02:03:30;99016.56;;;-1.87;100.00
36630;BME280;36256;42.154;23.002;2023-02-13T02:05:59;99020.78;;;-1.90;100.00
36630;BME280;36256;42.154;23.002;2023-02-13T02:08:27;99045.66;;;-1.78;100.00
36630;BME280;36256;42.154;23.002;2023-02-13T02:10:58;99045.28;;;-1.68;100.00
36630;BME280;36256;42.154;23.002;2023-02-13T02:13:29;99045.09;;;-1.63;100.00
36630;BME280;36256;42.154;23.002;2023-02-13T02:15:56;99047.66;;;-1.58;100.00
36630;BME280;36256;42.154;23.002;2023-02-13T02:18:23;99051.19;;;-1.48;99.98
36630;BME280;36256;42.154;23.002;2023-02-13T02:32:47;99071.69;;;-1.37;97.13
36630;BME280;36256;42.154;23.002;2023-02-13T02:38:25;99066.97;;;-1.37;95.31
36630;BME280;36256;42.154;23.002;2023-02-13T02:41:13;99063.31;;;-1.49;96.16
36630;BME280;36256;42.154;23.002;2023-02-13T02:46:39;99078.75;;;-1.57;93.73
36630;BME280;36256;42.154;23.002;2023-02-13T02:49:31;99081.38;;;-1.61;93.48
36630;BME280;36256;42.154;23.002;2023-02-13T02:52:28;99088.16;;;-1.67;93.71
36630;BME280;36256;42.154;23.002;2023-02-13T02:55:09;99088.91;;;-1.87;94.60
36630;BME280;36256;42.154;23.002;2023-02-13T02:57:44;99096.75;;;-2.06;95.52
36630;BME280;36256;42.154;23.002;2023-02-13T03:00:33;99078.97;;;-2.17;95.16
36630;BME280;36256;42.154;23.002;2023-02-13T03:03:22;99093.50;;;-2.08;94.24
36630;BME280;36256;42.154;23.002;2023-02-13T03:06:15;99089.63;;;-2.07;94.86
36630;BME280;36256;42.154;23.002;2023-02-13T03:08:51;99096.09;;;-2.03;94.00
36630;BME280;36256;42.154;23.002;2023-02-13T03:11:38;99096.56;;;-2.01;96.42
36630;BME280;36256;42.154;23.002;2023-02-13T03:14:25;99101.44;;;-2.06;99.46
36630;BME280;36256;42.154;23.002;2023-02-13T03:16:53;99090.44;;;-2.06;96.71
36630;BME280;36256;42.154;23.002;2023-02-13T03:28:17;99106.19;;;-2.24;98.58
36630;BME280;36256;42.154;23.002;2023-02-13T03:42:43;99123.66;;;-2.46;100.00
36630;BME280;36256;42.154;23.002;2023-02-13T03:45:16;99116.88;;;-2.48;100.00
36630;BME280;36256;42.154;23.002;2023-02-13T03:48:06;99126.91;;;-2.52;98.50
36630;BME280;36256;42.154;23.002;2023-02-13T03:50:58;99119.16;;;-2.50;99.06
36630;BME280;36256;42.154;23.002;2023-02-13T03:53:32;99121.41;;;-2.52;99.26
36630;BME280;36256;42.154;23.002;2023-02-13T03:56:01;99130.28;;;-2.55;100.00
36630;BME280;36256;42.154;23.002;2023-02-13T03:58:50;99127.72;;;-2.52;100.00
36630;BME280;36256;42.154;23.002;2023-02-13T04:01:38;99124.16;;;-2.52;99.49
36630;BME280;36256;42.154;23.002;2023-02-13T04:04:12;99121.25;;;-2.56;98.74
36630;BME280;36256;42.154;23.002;2023-02-13T04:07:02;99128.22;;;-2.58;98.81
36630;BME280;36256;42.154;23.002;2023-02-13T04:09:32;99115.91;;;-2.69;97.85
36630;BME280;36256;42.154;23.002;2023-02-13T04:12:20;99135.47;;;-2.54;97.06
36630;BME280;36256;42.154;23.002;2023-02-13T04:15:01;99150.69;;;-2.56;97.76
36630;BME280;36256;42.154;23.002;2023-02-13T04:17:33;99147.13;;;-2.57;98.01
36630;BME280;36256;42.154;23.002;2023-02-13T04:20:02;99149.53;;;-2.55;97.83
36630;BME280;36256;42.154;23.002;2023-02-13T04:22:29;99147.59;;;-2.63;99.66
36630;BME280;36256;42.154;23.002;2023-02-13T04:24:55;99148.41;;;-2.54;99.53
36630;BME280;36256;42.154;23.002;2023-02-13T04:27:24;99145.81;;;-2.51;98.29
36630;BME280;36256;42.154;23.002;2023-02-13T04:29:52;99139.84;;;-2.44;97.80
36630;BME280;36256;42.154;23.002;2023-02-13T04:32:18;99143.88;;;-2.50;97.99
36630;BME280;36256;42.154;23.002;2023-02-13T04:34:45;99144.03;;;-2.55;97.23
36630;BME280;36256;42.154;23.002;2023-02-13T04:37:11;99154.06;;;-2.59;97.09
36630;BME280;36256;42.154;23.002;2023-02-13T04:39:38;99148.41;;;-2.54;97.56
36630;BME280;36256;42.154;23.002;2023-02-13T04:42:04;99149.53;;;-2.55;97.28
36630;BME280;36256;42.154;23.002;2023-02-13T04:44:31;99148.75;;;-2.56;96.78
36630;BME280;36256;42.154;23.002;2023-02-13T04:46:58;99144.69;;;-2.58;95.95
36630;BME280;36256;42.154;23.002;2023-02-13T04:49:24;99149.22;;;-2.62;95.31
36630;BME280;36256;42.154;23.002;2023-02-13T04:51:51;99148.88;;;-2.69;96.64
36630;BME280;36256;42.154;23.002;2023-02-13T04:54:18;99162.47;;;-2.73;96.26
36630;BME280;36256;42.154;23.002;2023-02-13T04:56:44;99163.13;;;-2.67;95.67
36630;BME280;36256;42.154;23.002;2023-02-13T04:59:11;99163.59;;;-2.65;96.12
36630;BME280;36256;42.154;23.002;2023-02-13T05:01:37;99175.25;;;-2.68;96.34
36630;BME280;36256;42.154;23.002;2023-02-13T05:04:05;99168.94;;;-2.77;95.03
36630;BME280;36256;42.154;23.002;2023-02-13T05:06:32;99167.28;;;-2.78;94.98
36630;BME280;36256;42.154;23.002;2023-02-13T05:08:59;99157.59;;;-2.84;94.40
36630;BME280;36256;42.154;23.002;2023-02-13T05:11:25;99166.63;;;-2.92;92.22
36630;BME280;36256;42.154;23.002;2023-02-13T05:13:52;99165.00;;;-2.93;93.61
36630;BME280;36256;42.154;23.002;2023-02-13T05:16:18;99171.16;;;-2.96;94.35
36630;BME280;36256;42.154;23.002;2023-02-13T05:18:45;99179.88;;;-2.94;94.86
36630;BME280;36256;42.154;23.002;2023-02-13T05:21:11;99179.06;;;-2.95;93.72
36630;BME280;36256;42.154;23.002;2023-02-13T05:23:56;99171.66;;;-2.94;93.06
36630;BME280;36256;42.154;23.002;2023-02-13T05:26:23;99172.13;;;-2.92;94.15
36630;BME280;36256;42.154;23.002;2023-02-13T05:28:50;99175.38;;;-2.90;93.62
36630;BME280;36256;42.154;23.002;2023-02-13T05:31:35;99179.72;;;-3.06;94.00
36630;BME280;36256;42.154;23.002;2023-02-13T05:34:01;99176.97;;;-3.06;95.29
36630;BME280;36256;42.154;23.002;2023-02-13T05:36:28;99182.56;;;-3.20;94.13
36630;BME280;36256;42.154;23.002;2023-02-13T05:38:55;99183.69;;;-3.30;93.86
36630;BME280;36256;42.154;23.002;2023-02-13T05:41:21;99170.31;;;-3.62;94.95
36630;BME280;36256;42.154;23.002;2023-02-13T05:43:48;99187.75;;;-3.58;94.95
36630;BME280;36256;42.154;23.002;2023-02-13T05:46:14;99167.06;;;-3.64;95.27
36630;BME280;36256;42.154;23.002;2023-02-13T05:48:41;99183.63;;;-3.47;96.10
36630;BME280;36256;42.154;23.002;2023-02-13T05:51:08;99187.84;;;-3.41;95.30
36630;BME280;36256;42.154;23.002;2023-02-13T05:53:35;99198.03;;;-3.33;94.51
36630;BME280;36256;42.154;23.002;2023-02-13T05:56:03;99202.41;;;-3.23;93.81
36630;BME280;36256;42.154;23.002;2023-02-13T05:58:31;99195.19;;;-3.19;93.72
36630;BME280;36256;42.154;23.002;2023-02-13T06:00:57;99210.53;;;-3.09;95.57
36630;BME280;36256;42.154;23.002;2023-02-13T06:03:28;99212.50;;;-3.01;99.53
36630;BME280;36256;42.154;23.002;2023-02-13T06:05:55;99206.38;;;-2.98;98.49
36630;BME280;36256;42.154;23.002;2023-02-13T06:08:22;99206.69;;;-2.91;97.44
36630;BME280;36256;42.154;23.002;2023-02-13T06:10:49;99209.47;;;-2.83;97.60
36630;BME280;36256;42.154;23.002;2023-02-13T06:13:16;99197.84;;;-2.88;96.66
36630;BME280;36256;42.154;23.002;2023-02-13T06:15:43;99214.84;;;-2.69;95.12
36630;BME280;36256;42.154;23.002;2023-02-13T06:18:10;99208.72;;;-2.66;95.00
36630;BME280;36256;42.154;23.002;2023-02-13T06:20:37;99205.78;;;-2.61;95.13
36630;BME280;36256;42.154;23.002;2023-02-13T06:23:04;99207.72;;;-2.53;95.77
36630;BME280;36256;42.154;23.002;2023-02-13T06:25:30;99213.91;;;-2.39;95.88
36630;BME280;36256;42.154;23.002;2023-02-13T06:27:57;99219.56;;;-2.27;96.65
36630;BME280;36256;42.154;23.002;2023-02-13T06:30:24;99215.19;;;-2.28;97.97
36630;BME280;36256;42.154;23.002;2023-02-13T06:32:50;99224.22;;;-2.45;99.08
36630;BME280;36256;42.154;23.002;2023-02-13T06:35:17;99221.00;;;-2.38;99.18
36630;BME280;36256;42.154;23.002;2023-02-13T06:37:44;99229.25;;;-2.21;98.67
36630;BME280;36256;42.154;23.002;2023-02-13T06:40:12;99222.31;;;-2.10;98.21
36630;BME280;36256;42.154;23.002;2023-02-13T06:42:39;99228.09;;;-1.94;97.87
36630;BME280;36256;42.154;23.002;2023-02-13T06:45:07;99217.72;;;-1.72;96.70
36630;BME280;36256;42.154;23.002;2023-02-13T06:47:34;99211.50;;;-1.51;95.52
36630;BME280;36256;42.154;23.002;2023-02-13T06:50:01;99226.13;;;-1.22;94.47
36630;BME280;36256;42.154;23.002;2023-02-13T06:52:27;99227.94;;;-1.26;94.53
36630;BME280;36256;42.154;23.002;2023-02-13T06:54:55;99224.38;;;-1.26;94.83
36630;BME280;36256;42.154;23.002;2023-02-13T06:57:22;99228.56;;;-1.20;95.15
36630;BME280;36256;42.154;23.002;2023-02-13T06:59:48;99223.81;;;-1.11;95.52
36630;BME280;36256;42.154;23.002;2023-02-13T07:02:15;99226.88;;;-1.04;95.75
36630;BME280;36256;42.154;23.002;2023-02-13T07:04:42;99229.75;;;-0.92;94.43
36630;BME280;36256;42.154;23.002;2023-02-13T07:07:08;99229.81;;;-0.80;93.67
36630;BME280;36256;42.154;23.002;2023-02-13T07:09:35;99226.41;;;-0.77;92.93
36630;BME280;36256;42.154;23.002;2023-02-13T07:12:03;99233.69;;;-0.72;94.56
36630;BME280;36256;42.154;23.002;2023-02-13T07:14:30;99235.13;;;-0.66;94.61
36630;BME280;36256;42.154;23.002;2023-02-13T07:16:57;99210.81;;;-0.73;95.19
36630;BME280;36256;42.154;23.002;2023-02-13T07:19:23;99230.50;;;-0.54;95.80
36630;BME280;36256;42.154;23.002;2023-02-13T07:21:50;99239.88;;;-0.55;95.93
36630;BME280;36256;42.154;23.002;2023-02-13T07:24:17;99239.34;;;-0.48;96.73
36630;BME280;36256;42.154;23.002;2023-02-13T07:26:43;99235.81;;;-0.49;97.16
36630;BME280;36256;42.154;23.002;2023-02-13T07:29:10;99236.28;;;-0.47;97.13
36630;BME280;36256;42.154;23.002;2023-02-13T07:31:38;99238.00;;;-0.63;98.14
36630;BME280;36256;42.154;23.002;2023-02-13T07:34:05;99237.53;;;-0.44;99.33
36630;BME280;36256;42.154;23.002;2023-02-13T07:36:32;99229.63;;;-0.25;97.96
36630;BME280;36256;42.154;23.002;2023-02-13T07:38:58;99229.94;;;-0.06;96.51
36630;BME280;36256;42.154;23.002;2023-02-13T07:41:25;99234.13;;;-0.21;96.13
36630;BME280;36256;42.154;23.002;2023-02-13T07:43:53;99229.38;;;-0.12;96.11
36630;BME280;36256;42.154;23.002;2023-02-13T07:46:20;99240.25;;;0.06;95.75
36630;BME280;36256;42.154;23.002;2023-02-13T07:48:46;99229.28;;;0.30;94.50
36630;BME280;36256;42.154;23.002;2023-02-13T07:51:13;99195.28;;;0.38;92.57
36630;BME280;36256;42.154;23.002;2023-02-13T07:53:40;99220.91;;;0.71;92.42
36630;BME280;36256;42.154;23.002;2023-02-13T07:56:07;99220.03;;;1.15;91.22
36630;BME280;36256;42.154;23.002;2023-02-13T07:58:35;99215.59;;;1.50;88.30
36630;BME280;36256;42.154;23.002;2023-02-13T08:01:10;99191.97;;;1.53;87.50
36630;BME280;36256;42.154;23.002;2023-02-13T08:03:37;99201.06;;;1.66;86.49
36630;BME280;36256;42.154;23.002;2023-02-13T08:06:05;99196.56;;;1.73;86.02
36630;BME280;36256;42.154;23.002;2023-02-13T08:08:32;99184.72;;;1.88;85.53
36630;BME280;36256;42.154;23.002;2023-02-13T08:11:07;99193.94;;;2.20;84.18
36630;BME280;36256;42.154;23.002;2023-02-13T08:13:52;99187.41;;;2.40;83.35
36630;BME280;36256;42.154;23.002;2023-02-13T08:16:19;99195.38;;;2.73;83.34
36630;BME280;36256;42.154;23.002;2023-02-13T08:18:46;99196.63;;;3.06;81.38
36630;BME280;36256;42.154;23.002;2023-02-13T08:21:12;99186.69;;;3.37;79.89
36630;BME280;36256;42.154;23.002;2023-02-13T08:23:40;99190.28;;;3.91;77.70
36630;BME280;36256;42.154;23.002;2023-02-13T08:26:07;99179.16;;;4.10;75.27
36630;BME280;36256;42.154;23.002;2023-02-13T08:28:33;99185.75;;;4.40;75.06
36630;BME280;36256;42.154;23.002;2023-02-13T08:31:00;99181.38;;;5.07;73.55
36630;BME280;36256;42.154;23.002;2023-02-13T08:33:27;99179.50;;;5.37;71.31
36630;BME280;36256;42.154;23.002;2023-02-13T08:35:53;99168.72;;;5.62;69.98
36630;BME280;36256;42.154;23.002;2023-02-13T08:38:20;99175.34;;;5.80;69.13
36630;BME280;36256;42.154;23.002;2023-02-13T08:40:47;99165.72;;;5.22;71.73
36630;BME280;36256;42.154;23.002;2023-02-13T08:43:13;99163.72;;;5.75;71.49
36630;BME280;36256;42.154;23.002;2023-02-13T08:45:40;99153.47;;;6.82;66.58
36630;BME280;36256;42.154;23.002;2023-02-13T08:48:07;99160.44;;;6.65;66.51
36630;BME280;36256;42.154;23.002;2023-02-13T08:50:33;99151.75;;;6.70;67.04
36630;BME280;36256;42.154;23.002;2023-02-13T08:53:03;99141.22;;;6.97;63.76
36630;BME280;36256;42.154;23.002;2023-02-13T08:55:29;99142.03;;;7.48;62.27
36630;BME280;36256;42.154;23.002;2023-02-13T08:58:01;99135.41;;;8.85;57.75
36630;BME280;36256;42.154;23.002;2023-02-13T09:00:28;99125.81;;;9.24;55.92
36630;BME280;36256;42.154;23.002;2023-02-13T09:02:54;99102.56;;;9.52;53.56
36630;BME280;36256;42.154;23.002;2023-02-13T09:05:25;99111.44;;;10.44;52.49
36630;BME280;36256;42.154;23.002;2023-02-13T09:07:52;99110.38;;;10.10;51.50
36630;BME280;36256;42.154;23.002;2023-02-13T09:10:19;99144.44;;;10.12;52.57
36630;BME280;36256;42.154;23.002;2023-02-13T09:12:52;99150.59;;;9.47;53.08
36630;BME280;36256;42.154;23.002;2023-02-13T09:15:18;99147.41;;;8.92;55.27
36630;BME280;36256;42.154;23.002;2023-02-13T09:17:45;99147.41;;;9.52;53.58
36630;BME280;36256;42.154;23.002;2023-02-13T09:20:12;99135.91;;;11.05;50.92
36630;BME280;36256;42.154;23.002;2023-02-13T09:22:40;99139.31;;;11.31;50.25
36630;BME280;36256;42.154;23.002;2023-02-13T09:25:06;99144.56;;;12.40;48.04
36630;BME280;36256;42.154;23.002;2023-02-13T09:27:33;99142.25;;;12.92;45.66
36630;BME280;36256;42.154;23.002;2023-02-13T09:30:01;99136.66;;;11.98;46.75
36630;BME280;36256;42.154;23.002;2023-02-13T09:32:27;99134.66;;;13.39;44.26
36630;BME280;36256;42.154;23.002;2023-02-13T09:34:54;99174.84;;;14.12;42.84
36630;BME280;36256;42.154;23.002;2023-02-13T09:37:21;99169.41;;;14.02;42.11
36630;BME280;36256;42.154;23.002;2023-02-13T09:39:48;99171.31;;;13.39;44.12
36630;BME280;36256;42.154;23.002;2023-02-13T09:42:24;99166.22;;;12.47;44.66
36630;BME280;36256;42.154;23.002;2023-02-13T09:44:53;99159.00;;;11.75;46.35
36630;BME280;36256;42.154;23.002;2023-02-13T09:47:39;99165.41;;;10.76;48.43
36630;BME280;36256;42.154;23.002;2023-02-13T09:50:13;99145.28;;;9.98;50.19
36630;BME280;36256;42.154;23.002;2023-02-13T09:52:43;99152.19;;;9.02;53.42
36630;BME280;36256;42.154;23.002;2023-02-13T09:55:16;99152.97;;;8.85;54.06
36630;BME280;36256;42.154;23.002;2023-02-13T10:00:27;99155.25;;;8.27;55.24
36630;BME280;36256;42.154;23.002;2023-02-13T10:03:10;99151.56;;;8.09;58.30
36630;BME280;36256;42.154;23.002;2023-02-13T10:08:43;99133.59;;;8.24;56.71
36630;BME280;36256;42.154;23.002;2023-02-13T10:16:58;99125.38;;;7.69;57.53
36630;BME280;36256;42.154;23.002;2023-02-13T10:22:17;99119.09;;;7.90;58.18
36630;BME280;36256;42.154;23.002;2023-02-13T10:25:05;99110.69;;;7.86;57.97
36630;BME280;36256;42.154;23.002;2023-02-13T10:27:39;99086.31;;;7.76;57.71
36630;BME280;36256;42.154;23.002;2023-02-13T10:35:29;99090.31;;;7.82;57.90
36630;BME280;36256;42.154;23.002;2023-02-13T10:37:58;99077.19;;;7.93;57.16
36630;BME280;36256;42.154;23.002;2023-02-13T10:40:36;99072.78;;;7.85;57.29
36630;BME280;36256;42.154;23.002;2023-02-13T10:43:07;99065.47;;;7.63;56.84
36630;BME280;36256;42.154;23.002;2023-02-13T10:51:51;99049.19;;;7.79;58.84
36630;BME280;36256;42.154;23.002;2023-02-13T10:57:25;99036.88;;;8.05;56.98
36630;BME280;36256;42.154;23.002;2023-02-13T11:00:09;99029.72;;;8.22;58.14
36630;BME280;36256;42.154;23.002;2023-02-13T11:02:37;99015.41;;;8.34;55.80
36630;BME280;36256;42.154;23.002;2023-02-13T11:05:20;99024.94;;;8.19;55.80
36630;BME280;36256;42.154;23.002;2023-02-13T11:07:47;99016.94;;;8.14;56.05
36630;BME280;36256;42.154;23.002;2023-02-13T11:10:23;99015.75;;;8.15;55.85
36630;BME280;36256;42.154;23.002;2023-02-13T11:12:51;99003.75;;;8.14;55.36
36630;BME280;36256;42.154;23.002;2023-02-13T11:15:31;99012.94;;;8.04;56.00
36630;BME280;36256;42.154;23.002;2023-02-13T11:18:02;99004.13;;;8.09;56.80
36630;BME280;36256;42.154;23.002;2023-02-13T11:20:41;99005.41;;;8.33;55.42
36630;BME280;36256;42.154;23.002;2023-02-13T11:23:32;98982.19;;;8.08;56.00
36630;BME280;36256;42.154;23.002;2023-02-13T11:26:00;98995.38;;;8.25;55.82
36630;BME280;36256;42.154;23.002;2023-02-13T11:28:30;98991.81;;;8.35;55.77
36630;BME280;36256;42.154;23.002;2023-02-13T11:31:13;98981.41;;;8.25;54.79
36630;BME280;36256;42.154;23.002;2023-02-13T11:33:41;98981.44;;;8.46;55.38
36630;BME280;36256;42.154;23.002;2023-02-13T11:36:13;98971.44;;;8.66;54.51
36630;BME280;36256;42.154;23.002;2023-02-13T11:38:39;98970.25;;;8.70;54.69
36630;BME280;36256;42.154;23.002;2023-02-13T11:46:14;98955.00;;;8.89;54.72
36630;BME280;36256;42.154;23.002;2023-02-13T11:48:43;98954.66;;;8.66;53.85
36630;BME280;36256;42.154;23.002;2023-02-13T11:51:37;98951.84;;;8.73;54.26
36630;BME280;36256;42.154;23.002;2023-02-13T11:54:15;98950.66;;;8.67;54.70
36630;BME280;36256;42.154;23.002;2023-02-13T11:56:56;98933.06;;;8.74;54.84
36630;BME280;36256;42.154;23.002;2023-02-13T11:59:39;98930.63;;;8.86;54.86
36630;BME280;36256;42.154;23.002;2023-02-13T12:07:45;98920.41;;;9.48;54.07
36630;BME280;36256;42.154;23.002;2023-02-13T12:12:49;98907.25;;;9.38;52.56
36630;BME280;36256;42.154;23.002;2023-02-13T12:15:24;98893.19;;;9.49;52.70
36630;BME280;36256;42.154;23.002;2023-02-13T12:18:13;98887.28;;;9.33;52.55
36630;BME280;36256;42.154;23.002;2023-02-13T12:37:37;98858.41;;;9.43;50.90
36630;BME280;36256;42.154;23.002;2023-02-13T12:45:44;98855.00;;;9.73;50.46
36630;BME280;36256;42.154;23.002;2023-02-13T12:59:29;98832.69;;;9.59;50.66
36630;BME280;36256;42.154;23.002;2023-02-13T13:05:13;98828.66;;;9.60;49.67
36630;BME280;36256;42.154;23.002;2023-02-13T13:07:57;98825.34;;;9.75;49.38
36630;BME280;36256;42.154;23.002;2023-02-13T13:21:40;98805.19;;;9.91;48.68
36630;BME280;36256;42.154;23.002;2023-02-13T13:26:54;98793.16;;;9.94;48.72
36630;BME280;36256;42.154;23.002;2023-02-13T13:29:26;98796.47;;;9.82;49.22
36630;BME280;36256;42.154;23.002;2023-02-13T13:32:00;98796.09;;;9.76;48.96
36630;BME280;36256;42.154;23.002;2023-02-13T13:34:29;98792.44;;;9.83;48.84
36630;BME280;36256;42.154;23.002;2023-02-13T13:42:39;98775.38;;;9.63;48.96
36630;BME280;36256;42.154;23.002;2023-02-13T13:48:19;98774.97;;;9.65;48.82
36630;BME280;36256;42.154;23.002;2023-02-13T13:50:50;98767.31;;;9.72;49.15
36630;BME280;36256;42.154;23.002;2023-02-13T13:53:18;98772.06;;;9.79;48.22
36630;BME280;36256;42.154;23.002;2023-02-13T13:58:40;98763.59;;;9.86;49.08
36630;BME280;36256;42.154;23.002;2023-02-13T14:03:47;98763.16;;;9.87;49.14
36630;BME280;36256;42.154;23.002;2023-02-13T14:06:17;98760.31;;;9.91;48.85
36630;BME280;36256;42.154;23.002;2023-02-13T14:16:57;98751.41;;;9.59;48.31
36630;BME280;36256;42.154;23.002;2023-02-13T14:19:46;98748.63;;;9.59;50.14
36630;BME280;36256;42.154;23.002;2023-02-13T14:24:52;98742.66;;;9.49;50.70
36630;BME280;36256;42.154;23.002;2023-02-13T14:27:25;98747.78;;;9.62;48.87
36630;BME280;36256;42.154;23.002;2023-02-13T14:29:54;98744.22;;;9.58;47.93
36630;BME280;36256;42.154;23.002;2023-02-13T14:32:32;98751.94;;;9.43;47.46
36630;BME280;36256;42.154;23.002;2023-02-13T14:35:01;98743.94;;;9.41;49.15
36630;BME280;36256;42.154;23.002;2023-02-13T14:37:32;98747.94;;;9.40;50.77
36630;BME280;36256;42.154;23.002;2023-02-13T14:42:53;98740.78;;;9.32;51.07
36630;BME280;36256;42.154;23.002;2023-02-13T14:45:24;98743.38;;;9.02;51.50
36630;BME280;36256;42.154;23.002;2023-02-13T14:47:54;98742.59;;;9.02;50.81
36630;BME280;36256;42.154;23.002;2023-02-13T14:50:44;98742.16;;;9.07;50.98
36630;BME280;36256;42.154;23.002;2023-02-13T14:53:19;98738.56;;;9.06;51.35
36630;BME280;36256;42.154;23.002;2023-02-13T14:55:55;98733.81;;;8.96;51.64
36630;BME280;36256;42.154;23.002;2023-02-13T14:58:26;98741.91;;;8.80;51.85
36630;BME280;36256;42.154;23.002;2023-02-13T15:01:25;98735.53;;;8.76;51.24
36630;BME280;36256;42.154;23.002;2023-02-13T15:04:02;98739.69;;;8.40;52.08
36630;BME280;36256;42.154;23.002;2023-02-13T15:06:42;98720.56;;;8.14;52.45
36630;BME280;36256;42.154;23.002;2023-02-13T15:09:33;98741.72;;;8.15;52.67
36630;BME280;36256;42.154;23.002;2023-02-13T15:12:01;98734.97;;;8.02;53.94
36630;BME280;36256;42.154;23.002;2023-02-13T15:14:35;98746.19;;;7.63;55.44
36630;BME280;36256;42.154;23.002;2023-02-13T15:17:31;98738.22;;;7.40;54.48
36630;BME280;36256;42.154;23.002;2023-02-13T15:20:07;98735.78;;;7.21;55.18
36630;BME280;36256;42.154;23.002;2023-02-13T15:22:45;98737.38;;;7.01;55.91
36630;BME280;36256;42.154;23.002;2023-02-13T15:27:54;98737.28;;;6.76;58.42
36630;BME280;36256;42.154;23.002;2023-02-13T15:30:26;98738.44;;;6.54;57.34
36630;BME280;36256;42.154;23.002;2023-02-13T15:33:02;98738.03;;;6.52;57.28
36630;BME280;36256;42.154;23.002;2023-02-13T15:35:34;98736.25;;;6.12;60.18
36630;BME280;36256;42.154;23.002;2023-02-13T15:40:53;98739.91;;;5.69;60.66
36630;BME280;36256;42.154;23.002;2023-02-13T15:43:29;98741.44;;;5.60;61.78
36630;BME280;36256;42.154;23.002;2023-02-13T15:46:20;98741.34;;;5.49;61.81
36630;BME280;36256;42.154;23.002;2023-02-13T15:48:46;98742.84;;;5.39;60.81
36630;BME280;36256;42.154;23.002;2023-02-13T15:51:21;98743.59;;;5.33;60.82
36630;BME280;36256;42.154;23.002;2023-02-13T15:53:56;98747.56;;;5.32;60.70
36630;BME280;36256;42.154;23.002;2023-02-13T15:56:24;98753.16;;;5.35;60.45
36630;BME280;36256;42.154;23.002;2023-02-13T15:58:52;98751.44;;;5.24;61.03